Time,TemperatureF,DewpointF,PressureIn,WindDirection,WindDirectionDegrees,WindSpeedMPH,WindSpeedGustMPH,Humidity,HourlyPrecipIn,Conditions,Clouds,dailyrainin,SoftwareType,DateUTC
2013-02-04 00:00:00,44.0,32.0,-100.00,North,-999,-999.0,-999.0,63,0.00,,,-99.99,,2013-02-04 08:00:00,
2013-02-04 00:21:00,44.0,32.0,-100.00,North,-999,-999.0,-999.0,63,0.00,,,-99.99,,2013-02-04 08:21:00,
2013-02-04 00:32:00,44.0,32.0,-100.00,North,-999,-999.0,-999.0,63,0.00,,,-99.99,,2013-02-04 08:32:00,
2013-02-04 00:42:00,44.0,32.0,-100.00,North,-999,-999.0,-999.0,63,0.00,,,-99.99,,2013-02-04 08:42:00,
2013-02-04 00:52:00,44.0,32.0,-100.00,North,-999,-999.0,-999.0,63,0.00,,,-99.99,,2013-02-04 08:52:00,
2013-02-04 01:00:00,46.0,28.0,-100.00,North,-999,-999.0,-999.0,50,0.00,,,-99.99,,2013-02-04 09:00:00,
2013-02-04 01:21:00,46.0,28.0,-100.00,North,-999,-999.0,-999.0,50,0.00,,,-99.99,,2013-02-04 09:21:00,
2013-02-04 01:32:00,46.0,28.0,-100.00,North,-999,-999.0,-999.0,50,0.00,,,-99.99,,2013-02-04 09:32:00,
2013-02-04 01:42:00,46.0,28.0,-100.00,North,-999,-999.0,-999.0,50,0.00,,,-99.99,,2013-02-04 09:42:00,
2013-02-04 01:52:00,46.0,28.0,-100.00,North,-999,-999.0,-999.0,50,0.00,,,-99.99,,2013-02-04 09:52:00,
2013-02-04 02:00:00,47.0,24.0,-100.00,North,-999,-999.0,-999.0,40,0.00,,,-99.99,,2013-02-04 10:00:00,
2013-02-04 02:21:00,47.0,24.0,-100.00,North,-999,-999.0,-999.0,40,0.00,,,-99.99,,2013-02-04 10:21:00,
2013-02-04 02:32:00,47.0,24.0,-100.00,North,-999,-999.0,-999.0,40,0.00,,,-99.99,,2013-02-04 10:32:00,
2013-02-04 02:42:00,47.0,24.0,-100.00,North,-999,-999.0,-999.0,40,0.00,,,-99.99,,2013-02-04 10:42:00,
2013-02-04 02:52:00,47.0,24.0,-100.00,North,-999,-999.0,-999.0,40,0.00,,,-99.99,,2013-02-04 10:52:00,
2013-02-04 03:00:00,43.0,25.0,-100.00,North,-999,-999.0,-999.0,48,0.00,,,-99.99,,2013-02-04 11:00:00,
2013-02-04 03:22:00,43.0,25.0,-100.00,North,-999,-999.0,-999.0,48,0.00,,,-99.99,,2013-02-04 11:22:00,
2013-02-04 03:33:00,43.0,25.0,-100.00,North,-999,-999.0,-999.0,48,0.00,,,-99.99,,2013-02-04 11:33:00,
2013-02-04 03:42:00,43.0,25.0,-100.00,North,-999,-999.0,-999.0,48,0.00,,,-99.99,,2013-02-04 11:42:00,
2013-02-04 03:52:00,43.0,25.0,-100.00,North,-999,-999.0,-999.0,48,0.00,,,-99.99,,2013-02-04 11:52:00,
2013-02-04 04:00:00,45.0,21.0,-100.00,North,-999,-999.0,-999.0,39,0.00,,,-99.99,,2013-02-04 12:00:00,
2013-02-04 04:22:00,45.0,21.0,-100.00,North,-999,-999.0,-999.0,39,0.00,,,-99.99,,2013-02-04 12:22:00,
2013-02-04 04:33:00,45.0,21.0,-100.00,North,-999,-999.0,-999.0,39,0.00,,,-99.99,,2013-02-04 12:33:00,
2013-02-04 04:42:00,45.0,21.0,-100.00,North,-999,-999.0,-999.0,39,0.00,,,-99.99,,2013-02-04 12:42:00,
2013-02-04 04:53:00,45.0,21.0,-100.00,North,-999,-999.0,-999.0,39,0.00,,,-99.99,,2013-02-04 12:53:00,
2013-02-04 05:00:00,43.0,23.0,-100.00,North,-999,-999.0,-999.0,45,0.00,,,-99.99,,2013-02-04 13:00:00,
2013-02-04 05:22:00,43.0,23.0,-100.00,North,-999,-999.0,-999.0,45,0.00,,,-99.99,,2013-02-04 13:22:00,
2013-02-04 05:33:00,43.0,23.0,-100.00,North,-999,-999.0,-999.0,45,0.00,,,-99.99,,2013-02-04 13:33:00,
2013-02-04 05:42:00,43.0,23.0,-100.00,North,-999,-999.0,-999.0,45,0.00,,,-99.99,,2013-02-04 13:42:00,
2013-02-04 05:52:00,43.0,23.0,-100.00,North,-999,-999.0,-999.0,45,0.00,,,-99.99,,2013-02-04 13:52:00,
2013-02-04 06:00:00,45.0,22.0,-100.00,North,-999,-999.0,-999.0,40,0.00,,,-99.99,,2013-02-04 14:00:00,
2013-02-04 06:23:00,45.0,22.0,-100.00,North,-999,-999.0,-999.0,40,0.00,,,-99.99,,2013-02-04 14:23:00,
2013-02-04 06:33:00,45.0,22.0,-100.00,North,-999,-999.0,-999.0,40,0.00,,,-99.99,,2013-02-04 14:33:00,
2013-02-04 06:42:00,45.0,22.0,-100.00,North,-999,-999.0,-999.0,40,0.00,,,-99.99,,2013-02-04 14:42:00,
2013-02-04 06:52:00,45.0,22.0,-100.00,North,-999,-999.0,-999.0,40,0.00,,,-99.99,,2013-02-04 14:52:00,
2013-02-04 07:00:00,43.0,22.0,-100.00,North,-999,-999.0,-999.0,43,0.00,,,-99.99,,2013-02-04 15:00:00,
2013-02-04 07:24:00,43.0,22.0,-100.00,North,-999,-999.0,-999.0,43,0.00,,,-99.99,,2013-02-04 15:24:00,
2013-02-04 07:33:00,43.0,22.0,-100.00,North,-999,-999.0,-999.0,43,0.00,,,-99.99,,2013-02-04 15:33:00,
2013-02-04 07:43:00,43.0,22.0,-100.00,North,-999,-999.0,-999.0,43,0.00,,,-99.99,,2013-02-04 15:43:00,
2013-02-04 07:52:00,43.0,22.0,-100.00,North,-999,-999.0,-999.0,43,0.00,,,-99.99,,2013-02-04 15:52:00,
2013-02-04 08:00:00,45.0,23.0,-100.00,North,-999,-999.0,-999.0,42,0.00,,,-99.99,,2013-02-04 16:00:00,
2013-02-04 08:23:00,45.0,23.0,-100.00,North,-999,-999.0,-999.0,42,0.00,,,-99.99,,2013-02-04 16:23:00,
2013-02-04 08:33:00,45.0,23.0,-100.00,North,-999,-999.0,-999.0,42,0.00,,,-99.99,,2013-02-04 16:33:00,
2013-02-04 08:43:00,45.0,23.0,-100.00,North,-999,-999.0,-999.0,42,0.00,,,-99.99,,2013-02-04 16:43:00,
2013-02-04 08:52:00,45.0,23.0,-100.00,North,-999,-999.0,-999.0,42,0.00,,,-99.99,,2013-02-04 16:52:00,
2013-02-04 09:00:00,52.0,22.0,-100.00,North,-999,-999.0,-999.0,31,0.00,,,-99.99,,2013-02-04 17:00:00,
2013-02-04 09:21:00,52.0,22.0,-100.00,North,-999,-999.0,-999.0,31,0.00,,,-99.99,,2013-02-04 17:21:00,
2013-02-04 09:32:00,52.0,22.0,-100.00,North,-999,-999.0,-999.0,31,0.00,,,-99.99,,2013-02-04 17:32:00,
2013-02-04 09:42:00,52.0,22.0,-100.00,North,-999,-999.0,-999.0,31,0.00,,,-99.99,,2013-02-04 17:42:00,
2013-02-04 09:52:00,52.0,22.0,-100.00,North,-999,-999.0,-999.0,31,0.00,,,-99.99,,2013-02-04 17:52:00,
2013-02-04 10:00:00,56.0,26.0,-100.00,North,-999,-999.0,-999.0,31,0.00,,,-99.99,,2013-02-04 18:00:00,
2013-02-04 10:22:00,56.0,26.0,-100.00,North,-999,-999.0,-999.0,31,0.00,,,-99.99,,2013-02-04 18:22:00,
2013-02-04 10:32:00,56.0,26.0,-100.00,North,-999,-999.0,-999.0,31,0.00,,,-99.99,,2013-02-04 18:32:00,
2013-02-04 10:42:00,56.0,26.0,-100.00,North,-999,-999.0,-999.0,31,0.00,,,-99.99,,2013-02-04 18:42:00,
2013-02-04 10:52:00,56.0,26.0,-100.00,North,-999,-999.0,-999.0,31,0.00,,,-99.99,,2013-02-04 18:52:00,
2013-02-04 11:00:00,61.0,25.0,-100.00,North,-999,-999.0,-999.0,25,0.00,,,-99.99,,2013-02-04 19:00:00,
2013-02-04 11:22:00,61.0,25.0,-100.00,North,-999,-999.0,-999.0,25,0.00,,,-99.99,,2013-02-04 19:22:00,
2013-02-04 11:32:00,61.0,25.0,-100.00,North,-999,-999.0,-999.0,25,0.00,,,-99.99,,2013-02-04 19:32:00,
2013-02-04 11:42:00,61.0,25.0,-100.00,North,-999,-999.0,-999.0,25,0.00,,,-99.99,,2013-02-04 19:42:00,
2013-02-04 11:52:00,61.0,25.0,-100.00,North,-999,-999.0,-999.0,25,0.00,,,-99.99,,2013-02-04 19:52:00,
2013-02-04 12:00:00,64.0,30.0,-100.00,North,-999,-999.0,-999.0,27,0.00,,,-99.99,,2013-02-04 20:00:00,
2013-02-04 12:22:00,64.0,30.0,-100.00,North,-999,-999.0,-999.0,27,0.00,,,-99.99,,2013-02-04 20:22:00,
2013-02-04 12:32:00,64.0,30.0,-100.00,North,-999,-999.0,-999.0,27,0.00,,,-99.99,,2013-02-04 20:32:00,
2013-02-04 12:42:00,64.0,30.0,-100.00,North,-999,-999.0,-999.0,27,0.00,,,-99.99,,2013-02-04 20:42:00,
2013-02-04 12:52:00,64.0,30.0,-100.00,North,-999,-999.0,-999.0,27,0.00,,,-99.99,,2013-02-04 20:52:00,
2013-02-04 13:00:00,65.0,29.0,-100.00,North,-999,-999.0,-999.0,26,0.00,,,-99.99,,2013-02-04 21:00:00,
2013-02-04 13:23:00,65.0,29.0,-100.00,North,-999,-999.0,-999.0,26,0.00,,,-99.99,,2013-02-04 21:23:00,
2013-02-04 13:32:00,65.0,29.0,-100.00,North,-999,-999.0,-999.0,26,0.00,,,-99.99,,2013-02-04 21:32:00,
2013-02-04 13:43:00,65.0,29.0,-100.00,North,-999,-999.0,-999.0,26,0.00,,,-99.99,,2013-02-04 21:43:00,
2013-02-04 13:52:00,65.0,29.0,-100.00,North,-999,-999.0,-999.0,26,0.00,,,-99.99,,2013-02-04 21:52:00,
2013-02-04 14:00:00,64.0,36.0,-100.00,North,-999,-999.0,-999.0,36,0.00,,,-99.99,,2013-02-04 22:00:00,
2013-02-04 14:22:00,64.0,36.0,-100.00,North,-999,-999.0,-999.0,36,0.00,,,-99.99,,2013-02-04 22:22:00,
2013-02-04 14:33:00,64.0,36.0,-100.00,North,-999,-999.0,-999.0,36,0.00,,,-99.99,,2013-02-04 22:33:00,
2013-02-04 14:42:00,64.0,36.0,-100.00,North,-999,-999.0,-999.0,36,0.00,,,-99.99,,2013-02-04 22:42:00,
2013-02-04 14:52:00,64.0,36.0,-100.00,North,-999,-999.0,-999.0,36,0.00,,,-99.99,,2013-02-04 22:52:00,
2013-02-04 15:00:00,61.0,40.0,-100.00,North,-999,-999.0,-999.0,45,0.00,,,-99.99,,2013-02-04 23:00:00,
2013-02-04 15:22:00,61.0,40.0,-100.00,North,-999,-999.0,-999.0,45,0.00,,,-99.99,,2013-02-04 23:22:00,
2013-02-04 15:32:00,61.0,40.0,-100.00,North,-999,-999.0,-999.0,45,0.00,,,-99.99,,2013-02-04 23:32:00,
2013-02-04 15:42:00,61.0,40.0,-100.00,North,-999,-999.0,-999.0,45,0.00,,,-99.99,,2013-02-04 23:42:00,
2013-02-04 15:52:00,61.0,40.0,-100.00,North,-999,-999.0,-999.0,45,0.00,,,-99.99,,2013-02-04 23:52:00,
2013-02-04 16:00:00,60.0,39.0,-100.00,North,-999,-999.0,-999.0,46,0.00,,,-99.99,,2013-02-05 00:00:00,
2013-02-04 16:22:00,60.0,39.0,-100.00,North,-999,-999.0,-999.0,46,0.00,,,-99.99,,2013-02-05 00:22:00,
2013-02-04 16:32:00,60.0,39.0,-100.00,North,-999,-999.0,-999.0,46,0.00,,,-99.99,,2013-02-05 00:32:00,
2013-02-04 16:42:00,60.0,39.0,-100.00,North,-999,-999.0,-999.0,46,0.00,,,-99.99,,2013-02-05 00:42:00,
2013-02-04 16:52:00,60.0,39.0,-100.00,North,-999,-999.0,-999.0,46,0.00,,,-99.99,,2013-02-05 00:52:00,
2013-02-04 17:00:00,56.0,40.0,-100.00,North,-999,-999.0,-999.0,54,0.00,,,-99.99,,2013-02-05 01:00:00,
2013-02-04 17:22:00,56.0,40.0,-100.00,North,-999,-999.0,-999.0,54,0.00,,,-99.99,,2013-02-05 01:22:00,
2013-02-04 17:32:00,56.0,40.0,-100.00,North,-999,-999.0,-999.0,54,0.00,,,-99.99,,2013-02-05 01:32:00,
2013-02-04 17:42:00,56.0,40.0,-100.00,North,-999,-999.0,-999.0,54,0.00,,,-99.99,,2013-02-05 01:42:00,
2013-02-04 17:52:00,56.0,40.0,-100.00,North,-999,-999.0,-999.0,54,0.00,,,-99.99,,2013-02-05 01:52:00,
2013-02-04 18:00:00,53.0,41.0,-100.00,North,-999,-999.0,-999.0,62,0.00,,,-99.99,,2013-02-05 02:00:00,
2013-02-04 18:22:00,53.0,41.0,-100.00,North,-999,-999.0,-999.0,62,0.00,,,-99.99,,2013-02-05 02:22:00,
2013-02-04 18:32:00,53.0,41.0,-100.00,North,-999,-999.0,-999.0,62,0.00,,,-99.99,,2013-02-05 02:32:00,
2013-02-04 18:42:00,53.0,41.0,-100.00,North,-999,-999.0,-999.0,62,0.00,,,-99.99,,2013-02-05 02:42:00,
2013-02-04 18:52:00,53.0,41.0,-100.00,North,-999,-999.0,-999.0,62,0.00,,,-99.99,,2013-02-05 02:52:00,
2013-02-04 19:00:00,50.0,41.0,-100.00,North,-999,-999.0,-999.0,71,0.00,,,-99.99,,2013-02-05 03:00:00,
2013-02-04 19:22:00,50.0,41.0,-100.00,North,-999,-999.0,-999.0,71,0.00,,,-99.99,,2013-02-05 03:22:00,
2013-02-04 19:32:00,50.0,41.0,-100.00,North,-999,-999.0,-999.0,71,0.00,,,-99.99,,2013-02-05 03:32:00,
2013-02-04 19:42:00,50.0,41.0,-100.00,North,-999,-999.0,-999.0,71,0.00,,,-99.99,,2013-02-05 03:42:00,
2013-02-04 19:52:00,50.0,41.0,-100.00,North,-999,-999.0,-999.0,71,0.00,,,-99.99,,2013-02-05 03:52:00,
2013-02-04 20:00:00,48.0,41.0,-100.00,North,-999,-999.0,-999.0,75,0.00,,,-99.99,,2013-02-05 04:00:00,
2013-02-04 20:22:00,48.0,41.0,-100.00,North,-999,-999.0,-999.0,75,0.00,,,-99.99,,2013-02-05 04:22:00,
2013-02-04 20:32:00,48.0,41.0,-100.00,North,-999,-999.0,-999.0,75,0.00,,,-99.99,,2013-02-05 04:32:00,
2013-02-04 20:42:00,48.0,41.0,-100.00,North,-999,-999.0,-999.0,75,0.00,,,-99.99,,2013-02-05 04:42:00,
2013-02-04 20:52:00,48.0,41.0,-100.00,North,-999,-999.0,-999.0,75,0.00,,,-99.99,,2013-02-05 04:52:00,
2013-02-04 21:00:00,47.0,41.0,-100.00,North,-999,-999.0,-999.0,79,0.00,,,-99.99,,2013-02-05 05:00:00,
2013-02-04 21:22:00,47.0,41.0,-100.00,North,-999,-999.0,-999.0,79,0.00,,,-99.99,,2013-02-05 05:22:00,
2013-02-04 21:32:00,47.0,41.0,-100.00,North,-999,-999.0,-999.0,79,0.00,,,-99.99,,2013-02-05 05:32:00,
2013-02-04 21:42:00,47.0,41.0,-100.00,North,-999,-999.0,-999.0,79,0.00,,,-99.99,,2013-02-05 05:42:00,
2013-02-04 21:52:00,47.0,41.0,-100.00,North,-999,-999.0,-999.0,79,0.00,,,-99.99,,2013-02-05 05:52:00,
2013-02-04 22:00:00,47.0,39.0,-100.00,North,-999,-999.0,-999.0,74,0.00,,,-99.99,,2013-02-05 06:00:00,
2013-02-04 22:22:00,47.0,39.0,-100.00,North,-999,-999.0,-999.0,74,0.00,,,-99.99,,2013-02-05 06:22:00,
2013-02-04 22:32:00,47.0,39.0,-100.00,North,-999,-999.0,-999.0,74,0.00,,,-99.99,,2013-02-05 06:32:00,
2013-02-04 22:42:00,47.0,39.0,-100.00,North,-999,-999.0,-999.0,74,0.00,,,-99.99,,2013-02-05 06:42:00,
2013-02-04 22:52:00,47.0,39.0,-100.00,North,-999,-999.0,-999.0,74,0.00,,,-99.99,,2013-02-05 06:52:00,
2013-02-04 23:00:00,46.0,38.0,-100.00,North,-999,-999.0,-999.0,73,0.00,,,-99.99,,2013-02-05 07:00:00,
2013-02-04 23:22:00,46.0,38.0,-100.00,North,-999,-999.0,-999.0,73,0.00,,,-99.99,,2013-02-05 07:22:00,
2013-02-04 23:32:00,46.0,38.0,-100.00,North,-999,-999.0,-999.0,73,0.00,,,-99.99,,2013-02-05 07:32:00,
2013-02-04 23:42:00,46.0,38.0,-100.00,North,-999,-999.0,-999.0,73,0.00,,,-99.99,,2013-02-05 07:42:00,
2013-02-04 23:52:00,46.0,38.0,-100.00,North,-999,-999.0,-999.0,73,0.00,,,-99.99,,2013-02-05 07:52:00,